Time;durP1;ratioP1;P1;durP2;ratioP2;P2;SDS_P1;SDS_P2;PMS_P1;PMS_P2;Temp;Humidity;BMP_temperature;BMP_pressure;BME280_temperature;BME280_humidity;BME280_pressure;Samples;Min_cycle;Max_cycle;Signal;HPM_P1;HPM_P2
2023/01/02 00:02:01;;;;;;;;;;;10.70;97.50;;;;;;4999633;28;20396;-79
2023/01/02 00:04:27;;;;;;;;;;;10.70;97.50;;;;;;5001899;28;20007;-79
2023/01/02 00:06:54;;;;;;;;;;;10.70;97.60;;;;;;5003525;28;19929;-78
2023/01/02 00:09:20;;;;;;;;;;;10.70;97.60;;;;;;5003127;28;20009;-78
2023/01/02 00:11:47;;;;;;;;;;;10.70;97.70;;;;;;5000303;28;19933;-78
2023/01/02 00:14:13;;;;;;;;;;;10.70;97.70;;;;;;5005794;28;20755;-79
2023/01/02 00:16:41;;;;;;;;;;;10.70;97.70;;;;;;4994464;28;19937;-78
2023/01/02 00:19:08;;;;;;;;;;;10.70;97.80;;;;;;5003775;28;19929;-79
2023/01/02 00:21:35;;;;;;;;;;;10.70;97.80;;;;;;4994319;28;20012;-78
2023/01/02 00:24:01;;;;;;;;;;;10.70;97.80;;;;;;5004808;28;19941;-78
2023/01/02 00:26:29;;;;;;;;;;;10.70;97.80;;;;;;4998687;28;19987;-78
2023/01/02 00:28:56;;;;;;;;;;;10.70;97.90;;;;;;5001267;28;19956;-78
2023/01/02 00:31:22;;;;;;;;;;;10.70;97.90;;;;;;4994031;28;19929;-78
2023/01/02 00:33:50;;;;;;;;;;;10.70;97.90;;;;;;4998964;28;19940;-79
2023/01/02 00:36:17;;;;;;;;;;;10.70;97.90;;;;;;4999189;28;19935;-79
2023/01/02 00:38:43;;;;;;;;;;;10.70;98.00;;;;;;4999386;28;19929;-79
2023/01/02 00:41:10;;;;;;;;;;;10.70;97.90;;;;;;5002303;28;19933;-78
2023/01/02 00:43:36;;;;;;;;;;;10.70;98.00;;;;;;4997036;28;19937;-78
2023/01/02 00:46:03;;;;;;;;;;;10.70;98.00;;;;;;4995903;28;19929;-79
2023/01/02 00:48:30;;;;;;;;;;;10.70;98.00;;;;;;4997117;28;19933;-79
2023/01/02 00:50:58;;;;;;;;;;;10.70;98.00;;;;;;5000573;28;19972;-78
2023/01/02 00:53:24;;;;;;;;;;;10.70;98.10;;;;;;4999794;28;21709;-79
2023/01/02 00:55:51;;;;;;;;;;;10.70;98.00;;;;;;4998805;28;20686;-78
2023/01/02 00:58:17;;;;;;;;;;;10.60;98.00;;;;;;5000037;28;19936;-79
2023/01/02 01:00:44;;;;;;;;;;;10.70;98.00;;;;;;4999140;28;19933;-78
2023/01/02 01:03:10;;;;;;;;;;;10.70;98.00;;;;;;4996917;28;19984;-79
2023/01/02 01:05:38;;;;;;;;;;;10.70;98.00;;;;;;5003294;28;20277;-79
2023/01/02 01:08:06;;;;;;;;;;;10.70;98.00;;;;;;5000490;28;19988;-79
2023/01/02 01:10:32;;;;;;;;;;;10.70;97.90;;;;;;4998892;28;19933;-79
2023/01/02 01:12:59;;;;;;;;;;;10.60;97.80;;;;;;4998099;28;19930;-78
2023/01/02 01:15:25;;;;;;;;;;;10.60;97.80;;;;;;4999322;28;20142;-79
2023/01/02 01:17:52;;;;;;;;;;;10.60;97.70;;;;;;4997398;28;19968;-79
2023/01/02 01:20:18;;;;;;;;;;;10.60;97.60;;;;;;4998891;28;19929;-78
2023/01/02 01:22:45;;;;;;;;;;;10.60;97.60;;;;;;4999123;28;19940;-78
2023/01/02 01:25:13;;;;;;;;;;;10.60;97.60;;;;;;4997689;28;19929;-78
2023/01/02 01:27:39;;;;;;;;;;;10.60;97.60;;;;;;4999252;28;19939;-79
2023/01/02 01:30:07;;;;;;;;;;;10.60;97.70;;;;;;5004093;28;19929;-78
2023/01/02 01:32:34;;;;;;;;;;;10.60;97.70;;;;;;5001748;28;19930;-79
2023/01/02 01:35:00;;;;;;;;;;;10.60;97.80;;;;;;5003150;28;19933;-79
2023/01/02 01:37:27;;;;;;;;;;;10.60;97.70;;;;;;5004535;28;19937;-79
2023/01/02 01:39:53;;;;;;;;;;;10.60;97.70;;;;;;5006572;28;19929;-79
2023/01/02 01:42:21;;;;;;;;;;;10.60;97.70;;;;;;5004325;28;20265;-78
2023/01/02 01:44:48;;;;;;;;;;;10.60;97.70;;;;;;5006104;28;19979;-79
2023/01/02 01:47:23;;;;;;;;;;;10.60;97.70;;;;;;4998903;28;19936;-79
2023/01/02 01:49:51;;;;;;;;;;;10.60;97.70;;;;;;5002128;28;19937;-78
2023/01/02 01:52:18;;;;;;;;;;;10.60;97.60;;;;;;5004443;28;19929;-79
2023/01/02 01:54:47;;;;;;;;;;;10.60;97.60;;;;;;5001772;28;20286;-79
2023/01/02 01:57:16;;;;;;;;;;;10.60;97.60;;;;;;5006290;28;19940;-78
2023/01/02 01:59:44;;;;;;;;;;;10.60;97.50;;;;;;5003836;28;19999;-79
2023/01/02 02:02:11;;;;;;;;;;;10.60;97.50;;;;;;5004046;28;19933;-79
2023/01/02 02:04:38;;;;;;;;;;;10.60;97.60;;;;;;5003496;28;19936;-78
2023/01/02 02:07:04;;;;;;;;;;;10.60;97.70;;;;;;5004334;28;20592;-79
2023/01/02 02:09:35;;;;;;;;;;;10.60;97.70;;;;;;5003003;28;19934;-78
2023/01/02 02:12:02;;;;;;;;;;;10.60;97.80;;;;;;5003545;28;20000;-79
2023/01/02 02:14:28;;;;;;;;;;;10.60;97.90;;;;;;5003717;28;19929;-78
2023/01/02 02:17:01;;;;;;;;;;;10.60;97.90;;;;;;5003077;28;19989;-78
2023/01/02 02:19:39;;;;;;;;;;;10.60;97.90;;;;;;5004797;28;19937;-78
2023/01/02 02:22:14;;;;;;;;;;;10.60;98.00;;;;;;5003514;28;19929;-78
2023/01/02 02:24:56;;;;;;;;;;;10.60;97.90;;;;;;5004515;28;20000;-79
2023/01/02 02:27:40;;;;;;;;;;;10.60;97.90;;;;;;5000693;28;19937;-78
2023/01/02 02:30:15;;;;;;;;;;;10.60;97.80;;;;;;5004647;28;19933;-78
2023/01/02 02:32:51;;;;;;;;;;;10.60;97.70;;;;;;4997890;28;19929;-78
2023/01/02 02:35:22;;;;;;;;;;;10.60;97.80;;;;;;5001337;28;19937;-78
2023/01/02 02:37:51;;;;;;;;;;;10.50;97.80;;;;;;5000651;28;19984;-79
2023/01/02 02:40:19;;;;;;;;;;;10.60;97.80;;;;;;4999735;28;19992;-79
2023/01/02 02:42:52;;;;;;;;;;;10.60;97.90;;;;;;4997979;28;19940;-78
2023/01/02 02:45:23;;;;;;;;;;;10.60;97.90;;;;;;5002202;28;19929;-78
2023/01/02 02:47:51;;;;;;;;;;;10.60;97.90;;;;;;5001346;28;19936;-77
2023/01/02 02:50:22;;;;;;;;;;;10.60;97.90;;;;;;5000152;28;20007;-78
2023/01/02 02:52:52;;;;;;;;;;;10.50;97.90;;;;;;5001161;28;19929;-79
2023/01/02 02:55:21;;;;;;;;;;;10.50;97.90;;;;;;5002222;28;19933;-79
2023/01/02 02:57:49;;;;;;;;;;;10.50;97.80;;;;;;4998714;28;19933;-78
2023/01/02 03:00:18;;;;;;;;;;;10.50;97.80;;;;;;5002560;28;19936;-79
2023/01/02 03:02:46;;;;;;;;;;;10.50;97.80;;;;;;4999246;28;20408;-78
2023/01/02 03:05:14;;;;;;;;;;;10.50;97.80;;;;;;5000662;28;20326;-78
2023/01/02 03:07:46;;;;;;;;;;;10.50;97.80;;;;;;5003494;28;19936;-79
2023/01/02 03:10:21;;;;;;;;;;;10.50;97.90;;;;;;4998517;28;19936;-78
2023/01/02 03:12:50;;;;;;;;;;;10.50;97.90;;;;;;5002073;28;19937;-79
2023/01/02 03:15:20;;;;;;;;;;;10.50;97.80;;;;;;5000215;28;20409;-79
2023/01/02 03:17:54;;;;;;;;;;;10.50;97.70;;;;;;4997615;28;19933;-78
2023/01/02 03:20:22;;;;;;;;;;;10.50;97.60;;;;;;5003250;28;19941;-77
2023/01/02 03:22:52;;;;;;;;;;;10.40;97.40;;;;;;5002874;28;19961;-80
2023/01/02 03:25:20;;;;;;;;;;;10.50;97.40;;;;;;5003059;28;19929;-79
2023/01/02 03:27:48;;;;;;;;;;;10.50;97.30;;;;;;5004918;28;20682;-78
2023/01/02 03:30:16;;;;;;;;;;;10.50;97.20;;;;;;4999836;28;19984;-79
2023/01/02 03:32:45;;;;;;;;;;;10.50;97.20;;;;;;5004823;28;19929;-78
2023/01/02 03:35:15;;;;;;;;;;;10.50;97.20;;;;;;5000635;28;22156;-79
2023/01/02 03:37:43;;;;;;;;;;;10.50;97.10;;;;;;5006224;28;19929;-78
2023/01/02 03:40:13;;;;;;;;;;;10.50;97.10;;;;;;5003587;28;19929;-78
2023/01/02 03:42:42;;;;;;;;;;;10.50;97.00;;;;;;5002051;28;19940;-79
2023/01/02 03:45:10;;;;;;;;;;;10.50;97.30;;;;;;5002192;28;19930;-79
2023/01/02 03:47:38;;;;;;;;;;;10.50;97.00;;;;;;4998668;28;20298;-78
2023/01/02 03:50:07;;;;;;;;;;;10.50;97.00;;;;;;5000003;28;20344;-79
2023/01/02 03:52:35;;;;;;;;;;;10.40;97.00;;;;;;5003535;28;20065;-78
2023/01/02 03:55:02;;;;;;;;;;;10.40;97.00;;;;;;5003039;28;19934;-79
2023/01/02 03:57:33;;;;;;;;;;;10.40;97.10;;;;;;5004725;28;19944;-79
2023/01/02 04:00:01;;;;;;;;;;;10.40;97.10;;;;;;5000718;28;19933;-78
2023/01/02 04:02:33;;;;;;;;;;;10.40;97.00;;;;;;5002865;28;19951;-78
2023/01/02 04:05:03;;;;;;;;;;;10.40;97.00;;;;;;5000188;28;19937;-79
2023/01/02 04:07:32;;;;;;;;;;;10.40;97.00;;;;;;4999513;28;19952;-79
2023/01/02 04:10:00;;;;;;;;;;;10.40;96.90;;;;;;4998044;28;20069;-78
2023/01/02 04:12:28;;;;;;;;;;;10.40;96.90;;;;;;4999152;28;19933;-78
2023/01/02 04:14:57;;;;;;;;;;;10.40;96.90;;;;;;5003345;28;19941;-79
2023/01/02 04:17:25;;;;;;;;;;;10.40;96.90;;;;;;4998860;28;20496;-79
2023/01/02 04:19:53;;;;;;;;;;;10.40;96.90;;;;;;5000275;28;19933;-78
2023/01/02 04:22:21;;;;;;;;;;;10.40;96.90;;;;;;4999110;28;19933;-78
2023/01/02 04:24:52;;;;;;;;;;;10.40;96.90;;;;;;5002679;28;19934;-79
2023/01/02 04:27:23;;;;;;;;;;;10.40;96.90;;;;;;5000439;28;19954;-79
2023/01/02 04:29:50;;;;;;;;;;;10.40;96.90;;;;;;4998232;28;20365;-77
2023/01/02 04:32:19;;;;;;;;;;;10.40;96.90;;;;;;4997985;28;19941;-78
2023/01/02 04:34:46;;;;;;;;;;;10.30;96.90;;;;;;5002464;28;19929;-78
2023/01/02 04:37:25;;;;;;;;;;;10.30;97.00;;;;;;4997241;28;21703;-79
2023/01/02 04:39:53;;;;;;;;;;;10.40;97.10;;;;;;4998463;28;19933;-77
2023/01/02 04:42:20;;;;;;;;;;;10.30;97.10;;;;;;4999287;28;20908;-78
2023/01/02 04:44:47;;;;;;;;;;;10.30;97.10;;;;;;5000935;28;20023;-80
2023/01/02 04:47:13;;;;;;;;;;;10.30;97.20;;;;;;4996524;28;19933;-79
2023/01/02 04:49:40;;;;;;;;;;;10.30;97.30;;;;;;4998284;28;19933;-78
2023/01/02 04:52:06;;;;;;;;;;;10.30;97.40;;;;;;4997618;28;19961;-78
2023/01/02 04:54:33;;;;;;;;;;;10.30;97.50;;;;;;5000564;28;20666;-78
2023/01/02 04:57:00;;;;;;;;;;;10.30;97.50;;;;;;4999341;28;19936;-80
2023/01/02 04:59:28;;;;;;;;;;;10.30;97.60;;;;;;5003284;28;20012;-78
2023/01/02 05:01:54;;;;;;;;;;;10.30;97.60;;;;;;5006306;28;19937;-79
2023/01/02 05:04:21;;;;;;;;;;;10.30;97.60;;;;;;5004672;28;19930;-80
2023/01/02 05:06:47;;;;;;;;;;;10.30;97.60;;;;;;5013945;28;19937;-79
2023/01/02 05:09:14;;;;;;;;;;;10.30;97.40;;;;;;5009180;28;19938;-79
2023/01/02 05:11:41;;;;;;;;;;;10.30;97.30;;;;;;5006909;28;19976;-79
2023/01/02 05:14:08;;;;;;;;;;;10.30;97.20;;;;;;5010736;28;20290;-77
2023/01/02 05:16:36;;;;;;;;;;;10.30;97.00;;;;;;5009931;28;20634;-79
2023/01/02 05:19:02;;;;;;;;;;;10.30;96.90;;;;;;5011325;28;20007;-80
2023/01/02 05:24:13;;;;;;;;;;;10.20;96.70;;;;;;4998938;28;19937;-80
2023/01/02 05:26:39;;;;;;;;;;;10.20;96.60;;;;;;4941536;28;1716655;-80
2023/01/02 05:29:06;;;;;;;;;;;10.30;96.60;;;;;;5005264;28;19933;-80
2023/01/02 05:31:32;;;;;;;;;;;10.20;96.70;;;;;;5000069;28;19929;-79
2023/01/02 05:34:00;;;;;;;;;;;10.20;96.80;;;;;;5004021;28;20652;-79
2023/01/02 05:36:27;;;;;;;;;;;10.20;96.80;;;;;;5001705;28;19930;-79
2023/01/02 05:38:54;;;;;;;;;;;10.20;96.80;;;;;;5005979;28;19933;-80
2023/01/02 05:41:21;;;;;;;;;;;10.20;96.80;;;;;;5005950;28;19930;-79
2023/01/02 05:43:48;;;;;;;;;;;10.20;96.70;;;;;;5002620;28;20394;-80
2023/01/02 05:46:15;;;;;;;;;;;10.20;96.60;;;;;;5004220;28;19930;-79
2023/01/02 05:48:42;;;;;;;;;;;10.10;96.50;;;;;;5002812;28;19933;-80
2023/01/02 05:51:10;;;;;;;;;;;10.20;96.40;;;;;;5000769;28;19930;-79
2023/01/02 05:53:37;;;;;;;;;;;10.10;96.40;;;;;;5003295;28;20417;-80
2023/01/02 05:56:04;;;;;;;;;;;10.10;96.50;;;;;;4999616;28;20121;-78
2023/01/02 05:58:31;;;;;;;;;;;10.10;96.50;;;;;;5008004;28;19933;-79
2023/01/02 06:01:02;;;;;;;;;;;10.10;96.40;;;;;;4999698;28;19937;-79
2023/01/02 06:03:29;;;;;;;;;;;10.10;96.50;;;;;;4993899;28;19937;-80
2023/01/02 06:05:55;;;;;;;;;;;10.10;96.60;;;;;;5005686;28;20298;-80
2023/01/02 06:08:23;;;;;;;;;;;10.10;96.70;;;;;;5001582;28;19984;-79
2023/01/02 06:10:50;;;;;;;;;;;10.10;96.70;;;;;;5005271;28;20098;-79
2023/01/02 06:13:16;;;;;;;;;;;10.10;96.80;;;;;;5003749;28;20565;-80
2023/01/02 06:15:43;;;;;;;;;;;10.00;96.70;;;;;;5004573;28;20012;-80
2023/01/02 06:18:09;;;;;;;;;;;10.10;96.70;;;;;;5001641;28;19940;-79
2023/01/02 06:20:36;;;;;;;;;;;10.00;94.40;;;;;;4998417;28;19934;-80
2023/01/02 06:23:02;;;;;;;;;;;9.90;94.60;;;;;;5001089;28;20361;-80
2023/01/02 06:25:30;;;;;;;;;;;9.90;95.00;;;;;;5005211;28;19976;-80
2023/01/02 06:27:57;;;;;;;;;;;9.90;95.40;;;;;;5003599;28;20287;-79
2023/01/02 06:30:23;;;;;;;;;;;9.90;95.70;;;;;;5004801;28;19933;-79
2023/01/02 06:32:50;;;;;;;;;;;9.90;95.80;;;;;;5003914;28;20464;-79
2023/01/02 06:35:16;;;;;;;;;;;9.90;95.90;;;;;;5003745;28;19941;-81
2023/01/02 06:37:43;;;;;;;;;;;9.90;95.90;;;;;;5001966;28;19929;-80
2023/01/02 06:40:10;;;;;;;;;;;9.90;96.00;;;;;;5004441;28;20820;-78
2023/01/02 06:42:38;;;;;;;;;;;9.90;96.00;;;;;;5002780;28;19929;-79
2023/01/02 06:45:05;;;;;;;;;;;9.90;96.00;;;;;;5002747;28;20436;-79
2023/01/02 06:47:32;;;;;;;;;;;9.90;96.00;;;;;;4998934;28;19929;-79
2023/01/02 06:49:58;;;;;;;;;;;9.90;96.10;;;;;;5005636;28;19933;-79
2023/01/02 06:52:26;;;;;;;;;;;9.90;96.20;;;;;;5007281;28;20003;-80
2023/01/02 06:54:53;;;;;;;;;;;9.90;96.30;;;;;;5012700;28;19943;-80
2023/01/02 06:57:20;;;;;;;;;;;9.90;96.40;;;;;;5005180;28;19936;-80
2023/01/02 06:59:47;;;;;;;;;;;9.80;96.40;;;;;;5009956;28;19930;-80
2023/01/02 07:02:14;;;;;;;;;;;9.90;96.50;;;;;;5009709;28;19929;-80
2023/01/02 07:04:40;;;;;;;;;;;9.80;96.60;;;;;;5005146;28;19937;-80
2023/01/02 07:07:07;;;;;;;;;;;9.90;96.70;;;;;;5011314;28;19929;-79
2023/01/02 07:09:34;;;;;;;;;;;9.80;96.80;;;;;;5007118;28;19976;-80
2023/01/02 07:12:00;;;;;;;;;;;9.90;96.90;;;;;;5005325;28;19963;-79
2023/01/02 07:14:27;;;;;;;;;;;9.80;97.00;;;;;;5007645;28;19960;-80
2023/01/02 07:16:55;;;;;;;;;;;9.80;97.00;;;;;;5002135;28;19929;-80
2023/01/02 07:19:21;;;;;;;;;;;9.80;97.10;;;;;;5006512;28;19930;-79
2023/01/02 07:21:48;;;;;;;;;;;9.80;97.10;;;;;;5009505;28;19933;-79
2023/01/02 07:24:15;;;;;;;;;;;9.80;97.20;;;;;;5005391;28;20031;-79
2023/01/02 07:26:41;;;;;;;;;;;9.80;97.30;;;;;;5007061;28;20469;-80
2023/01/02 07:29:08;;;;;;;;;;;9.80;97.30;;;;;;5000810;28;19933;-79
2023/01/02 07:31:35;;;;;;;;;;;9.80;97.40;;;;;;5001671;28;19929;-80
2023/01/02 07:34:03;;;;;;;;;;;9.80;97.40;;;;;;5003819;28;19985;-80
2023/01/02 07:36:29;;;;;;;;;;;9.80;97.40;;;;;;5004203;28;19929;-79
2023/01/02 07:38:57;;;;;;;;;;;9.80;97.50;;;;;;5004120;28;20720;-79
2023/01/02 07:41:24;;;;;;;;;;;9.70;97.50;;;;;;5002936;28;20484;-80
2023/01/02 07:43:51;;;;;;;;;;;9.70;97.50;;;;;;5002471;28;19933;-79
2023/01/02 07:46:19;;;;;;;;;;;9.70;97.50;;;;;;5000429;28;20645;-79
2023/01/02 07:48:46;;;;;;;;;;;9.70;97.50;;;;;;5004116;28;19958;-79
2023/01/02 07:51:14;;;;;;;;;;;9.70;97.50;;;;;;5005493;28;19933;-79
2023/01/02 07:53:41;;;;;;;;;;;9.70;97.50;;;;;;5003024;28;19941;-79
2023/01/02 07:56:08;;;;;;;;;;;9.70;97.50;;;;;;5000214;28;19976;-79
2023/01/02 07:58:34;;;;;;;;;;;9.70;97.50;;;;;;5004974;28;21246;-79
2023/01/02 08:01:05;;;;;;;;;;;9.70;97.50;;;;;;5008504;28;19929;-79
2023/01/02 08:03:32;;;;;;;;;;;9.70;97.40;;;;;;5002624;28;20726;-80
2023/01/02 08:06:02;;;;;;;;;;;9.70;97.40;;;;;;5005703;28;19999;-80
2023/01/02 08:08:29;;;;;;;;;;;9.70;97.30;;;;;;5008898;28;20302;-79
2023/01/02 08:10:56;;;;;;;;;;;9.70;97.30;;;;;;5002594;28;19936;-80
2023/01/02 08:13:22;;;;;;;;;;;9.70;97.30;;;;;;5005864;28;19933;-80
2023/01/02 08:15:49;;;;;;;;;;;9.70;97.30;;;;;;5004891;28;19937;-79
2023/01/02 08:18:15;;;;;;;;;;;9.70;97.40;;;;;;5004175;28;19930;-79
2023/01/02 08:20:42;;;;;;;;;;;9.70;97.40;;;;;;5006925;28;19929;-79
2023/01/02 08:23:09;;;;;;;;;;;9.70;97.40;;;;;;5008359;28;19930;-80
2023/01/02 08:25:36;;;;;;;;;;;9.70;97.30;;;;;;5002012;28;20390;-80
2023/01/02 08:28:03;;;;;;;;;;;9.70;97.30;;;;;;5006004;28;20481;-79
2023/01/02 08:30:30;;;;;;;;;;;9.70;97.30;;;;;;5005331;28;19979;-79
2023/01/02 08:32:56;;;;;;;;;;;9.70;97.30;;;;;;4997696;28;20060;-81
2023/01/02 08:35:23;;;;;;;;;;;9.70;97.30;;;;;;5001734;28;19933;-80
2023/01/02 08:37:49;;;;;;;;;;;9.70;97.20;;;;;;5006289;28;19933;-80
2023/01/02 08:40:16;;;;;;;;;;;9.70;97.20;;;;;;5004866;28;19934;-80
2023/01/02 08:42:44;;;;;;;;;;;9.60;97.20;;;;;;5006616;28;19929;-80
2023/01/02 08:45:10;;;;;;;;;;;9.70;97.20;;;;;;5006387;28;19933;-79
2023/01/02 08:47:37;;;;;;;;;;;9.70;97.20;;;;;;5003794;28;19929;-80
2023/01/02 08:50:04;;;;;;;;;;;9.70;97.20;;;;;;5006326;28;19929;-79
2023/01/02 08:52:30;;;;;;;;;;;9.70;97.20;;;;;;5007523;28;19929;-80
2023/01/02 08:54:59;;;;;;;;;;;9.70;97.20;;;;;;5005594;28;19933;-79
2023/01/02 08:57:26;;;;;;;;;;;9.70;97.10;;;;;;5007431;28;20286;-80
2023/01/02 08:59:54;;;;;;;;;;;9.70;97.00;;;;;;5007411;28;19936;-79
2023/01/02 09:02:20;;;;;;;;;;;9.70;97.00;;;;;;5001739;28;19934;-80
2023/01/02 09:04:47;;;;;;;;;;;9.70;97.00;;;;;;5002090;28;20616;-79
2023/01/02 09:07:13;;;;;;;;;;;9.80;97.00;;;;;;5002109;28;19930;-79
2023/01/02 09:09:40;;;;;;;;;;;9.70;96.90;;;;;;5003091;28;19935;-80
2023/01/02 09:12:07;;;;;;;;;;;9.70;97.20;;;;;;5000267;28;19937;-80
2023/01/02 09:14:33;;;;;;;;;;;9.80;96.90;;;;;;5002044;28;20091;-80
2023/01/02 09:17:01;;;;;;;;;;;9.80;96.80;;;;;;5001188;28;19960;-79
2023/01/02 09:19:27;;;;;;;;;;;9.80;96.70;;;;;;4985727;28;20297;-79
2023/01/02 09:21:54;;;;;;;;;;;9.80;96.70;;;;;;4987619;28;19937;-79
2023/01/02 09:24:21;;;;;;;;;;;9.80;96.60;;;;;;4982796;28;19944;-79
2023/01/02 09:26:47;;;;;;;;;;;9.80;96.50;;;;;;4978238;28;20024;-79
2023/01/02 09:29:14;;;;;;;;;;;9.90;96.20;;;;;;4982279;28;20684;-80
2023/01/02 09:31:41;;;;;;;;;;;9.90;96.20;;;;;;4997226;28;19933;-78
2023/01/02 09:34:09;;;;;;;;;;;9.90;96.10;;;;;;5004150;28;19930;-79
2023/01/02 09:36:36;;;;;;;;;;;9.90;96.10;;;;;;5003847;28;20315;-79
2023/01/02 09:39:03;;;;;;;;;;;9.90;96.00;;;;;;4995592;28;19936;-79
2023/01/02 09:41:34;;;;;;;;;;;9.90;95.90;;;;;;4997373;28;19980;-79
2023/01/02 09:44:02;;;;;;;;;;;9.90;95.80;;;;;;5001065;28;19972;-79
2023/01/02 09:46:31;;;;;;;;;;;10.00;95.60;;;;;;4996268;28;19940;-79
2023/01/02 09:48:58;;;;;;;;;;;10.00;95.40;;;;;;4996374;28;19930;-79
2023/01/02 09:51:26;;;;;;;;;;;10.00;95.10;;;;;;5000536;28;20313;-79
2023/01/02 09:53:53;;;;;;;;;;;10.10;95.00;;;;;;4991704;28;19936;-79
2023/01/02 09:56:21;;;;;;;;;;;10.10;94.90;;;;;;4999329;28;20464;-80
2023/01/02 09:58:50;;;;;;;;;;;10.10;94.90;;;;;;4998176;28;20009;-79
2023/01/02 10:01:21;;;;;;;;;;;10.10;94.80;;;;;;4990631;28;19940;-80
2023/01/02 10:03:53;;;;;;;;;;;10.10;94.80;;;;;;4987747;28;20839;-80
2023/01/02 10:06:21;;;;;;;;;;;10.10;94.60;;;;;;4995841;28;20276;-79
2023/01/02 10:08:55;;;;;;;;;;;10.10;94.60;;;;;;4999351;28;19933;-80
2023/01/02 10:11:26;;;;;;;;;;;10.20;94.30;;;;;;5001157;28;19929;-78
2023/01/02 10:13:54;;;;;;;;;;;10.20;94.20;;;;;;4992669;28;19937;-78
2023/01/02 10:16:24;;;;;;;;;;;10.20;94.30;;;;;;5001690;28;19937;-77
2023/01/02 10:18:52;;;;;;;;;;;10.20;94.40;;;;;;4998978;28;20004;-77
2023/01/02 10:21:20;;;;;;;;;;;10.20;94.30;;;;;;5002552;28;19941;-79
2023/01/02 10:23:49;;;;;;;;;;;10.20;94.00;;;;;;5000385;28;19929;-79
2023/01/02 10:26:18;;;;;;;;;;;10.20;94.00;;;;;;4997750;28;19969;-78
2023/01/02 10:28:50;;;;;;;;;;;10.40;93.70;;;;;;4998314;28;20072;-78
2023/01/02 10:31:20;;;;;;;;;;;10.30;93.70;;;;;;5002417;28;19940;-78
2023/01/02 10:33:50;;;;;;;;;;;10.30;93.60;;;;;;4998309;28;19969;-79
2023/01/02 10:36:22;;;;;;;;;;;10.30;93.60;;;;;;5004545;28;20601;-78
2023/01/02 10:38:48;;;;;;;;;;;10.40;93.30;;;;;;4995724;28;20057;-78
2023/01/02 10:41:16;;;;;;;;;;;10.40;93.30;;;;;;5009222;28;19932;-78
2023/01/02 10:43:43;;;;;;;;;;;10.40;93.30;;;;;;5006388;28;20186;-78
2023/01/02 10:46:10;;;;;;;;;;;10.40;93.20;;;;;;5002120;28;19937;-78
2023/01/02 10:48:38;;;;;;;;;;;10.50;93.30;;;;;;4995343;28;19941;-78
2023/01/02 10:51:06;;;;;;;;;;;10.50;93.40;;;;;;4996228;28;19933;-78
2023/01/02 10:53:35;;;;;;;;;;;10.50;93.50;;;;;;5008034;28;19929;-79
2023/01/02 10:56:03;;;;;;;;;;;10.50;93.50;;;;;;5006033;28;19944;-78
2023/01/02 10:58:32;;;;;;;;;;;10.60;93.40;;;;;;5010253;28;19983;-79
2023/01/02 11:01:04;;;;;;;;;;;10.50;93.30;;;;;;5009119;28;19940;-79
2023/01/02 11:03:31;;;;;;;;;;;10.60;93.30;;;;;;4999901;28;19929;-78
2023/01/02 11:05:58;;;;;;;;;;;10.60;93.00;;;;;;5004992;28;19940;-79
2023/01/02 11:08:33;;;;;;;;;;;10.60;93.00;;;;;;5009405;28;20672;-78
2023/01/02 11:11:01;;;;;;;;;;;10.60;92.80;;;;;;5009304;28;19937;-78
2023/01/02 11:13:32;;;;;;;;;;;10.70;92.70;;;;;;5006578;28;20171;-78
2023/01/02 11:16:03;;;;;;;;;;;10.70;92.70;;;;;;5005759;28;19929;-79
2023/01/02 11:18:30;;;;;;;;;;;10.70;92.70;;;;;;5003075;28;19934;-78
2023/01/02 11:21:02;;;;;;;;;;;10.80;92.80;;;;;;5008479;28;19929;-78
2023/01/02 11:23:30;;;;;;;;;;;10.80;92.80;;;;;;5006760;28;20012;-76
2023/01/02 11:25:57;;;;;;;;;;;10.80;92.70;;;;;;5006142;28;20443;-79
2023/01/02 11:28:25;;;;;;;;;;;10.80;92.80;;;;;;5007085;28;19937;-78
2023/01/02 11:30:52;;;;;;;;;;;10.90;92.70;;;;;;5005065;28;20274;-78
2023/01/02 11:33:28;;;;;;;;;;;10.80;92.50;;;;;;4999985;28;19936;-79
2023/01/02 11:35:56;;;;;;;;;;;10.90;92.60;;;;;;5012500;28;20409;-79
2023/01/02 11:38:23;;;;;;;;;;;10.90;92.50;;;;;;5007852;28;20073;-78
2023/01/02 11:40:55;;;;;;;;;;;10.90;92.30;;;;;;5006140;28;19933;-79
2023/01/02 11:46:12;;;;;;;;;;;11.00;92.50;;;;;;5008911;28;20058;-79
2023/01/02 11:48:40;;;;;;;;;;;11.00;92.60;;;;;;5002215;28;19936;-79
2023/01/02 11:51:10;;;;;;;;;;;11.00;92.50;;;;;;5004523;28;19960;-79
2023/01/02 11:53:40;;;;;;;;;;;11.10;92.10;;;;;;5009391;28;19937;-78
2023/01/02 11:56:10;;;;;;;;;;;11.10;92.10;;;;;;5004164;28;19933;-78
2023/01/02 11:58:40;;;;;;;;;;;11.10;92.10;;;;;;5004129;28;19952;-78
2023/01/02 12:01:11;;;;;;;;;;;11.10;91.90;;;;;;5003856;28;19929;-78
2023/01/02 12:03:38;;;;;;;;;;;11.10;92.00;;;;;;5000716;28;19929;-78
2023/01/02 12:06:13;;;;;;;;;;;11.20;92.20;;;;;;5004380;28;19933;-78
2023/01/02 12:08:44;;;;;;;;;;;11.20;92.30;;;;;;5008089;28;19934;-78
2023/01/02 12:11:18;;;;;;;;;;;11.10;92.30;;;;;;4998476;28;19933;-78
2023/01/02 12:14:06;;;;;;;;;;;11.30;92.40;;;;;;5003686;28;19930;-78
2023/01/02 12:16:35;;;;;;;;;;;11.30;92.30;;;;;;4997177;28;19929;-78
2023/01/02 12:19:10;;;;;;;;;;;11.30;92.30;;;;;;5003593;28;20661;-79
2023/01/02 12:21:42;;;;;;;;;;;11.30;92.40;;;;;;5001901;28;19938;-78
2023/01/02 12:24:21;;;;;;;;;;;11.40;92.20;;;;;;5003015;28;19980;-79
2023/01/02 12:26:51;;;;;;;;;;;11.40;92.20;;;;;;5002280;28;19934;-78
2023/01/02 12:29:32;;;;;;;;;;;11.50;92.40;;;;;;5001016;28;20294;-79
2023/01/02 12:32:10;;;;;;;;;;;11.40;92.40;;;;;;5006399;28;20430;-78
2023/01/02 12:34:44;;;;;;;;;;;11.50;92.40;;;;;;5000778;28;19941;-79
2023/01/02 12:37:20;;;;;;;;;;;11.50;92.40;;;;;;4995502;28;20413;-79
2023/01/02 12:40:04;;;;;;;;;;;11.50;92.50;;;;;;5003125;28;19929;-79
2023/01/02 12:42:38;;;;;;;;;;;11.60;92.50;;;;;;4992737;28;19945;-80
2023/01/02 12:45:11;;;;;;;;;;;11.60;92.50;;;;;;5000181;28;19941;-79
2023/01/02 12:47:47;;;;;;;;;;;11.60;92.60;;;;;;4993887;28;19933;-79
2023/01/02 12:50:23;;;;;;;;;;;11.60;92.70;;;;;;4990396;28;19929;-79
2023/01/02 12:52:57;;;;;;;;;;;11.60;92.70;;;;;;4996852;28;19929;-79
2023/01/02 12:55:27;;;;;;;;;;;11.60;92.70;;;;;;4984791;28;19933;-79
2023/01/02 12:57:57;;;;;;;;;;;11.70;92.60;;;;;;4986104;28;20055;-80
2023/01/02 13:00:33;;;;;;;;;;;11.70;92.70;;;;;;4990106;28;19941;-79
2023/01/02 13:03:12;;;;;;;;;;;11.70;93.00;;;;;;4985836;28;19929;-79
2023/01/02 13:05:42;;;;;;;;;;;11.70;92.60;;;;;;4987475;28;19937;-79
2023/01/02 13:08:15;;;;;;;;;;;11.70;92.60;;;;;;4985054;28;19933;-80
2023/01/02 13:10:42;;;;;;;;;;;11.80;92.60;;;;;;4988387;28;20520;-80
2023/01/02 13:13:11;;;;;;;;;;;11.80;92.60;;;;;;4999317;28;20137;-79
2023/01/02 13:15:39;;;;;;;;;;;11.80;92.60;;;;;;4998839;28;19976;-80
2023/01/02 13:18:07;;;;;;;;;;;11.70;92.60;;;;;;4996956;28;19930;-79
2023/01/02 13:20:39;;;;;;;;;;;11.80;92.70;;;;;;5000008;28;20472;-79
2023/01/02 13:23:14;;;;;;;;;;;11.80;92.70;;;;;;5001773;28;20253;-79
2023/01/02 13:25:45;;;;;;;;;;;11.90;92.70;;;;;;4997526;28;19942;-80
2023/01/02 13:28:12;;;;;;;;;;;11.90;92.70;;;;;;4997787;28;19952;-79
2023/01/02 13:30:44;;;;;;;;;;;11.90;92.70;;;;;;4996393;28;19983;-79
2023/01/02 13:33:20;;;;;;;;;;;11.90;92.70;;;;;;4998920;28;19934;-80
2023/01/02 13:35:47;;;;;;;;;;;12.00;92.80;;;;;;5002486;28;19972;-79
2023/01/02 13:38:14;;;;;;;;;;;12.00;92.90;;;;;;5005329;28;19941;-79
2023/01/02 13:40:45;;;;;;;;;;;12.00;93.00;;;;;;4997745;28;19937;-79
2023/01/02 13:43:15;;;;;;;;;;;12.00;93.10;;;;;;5003199;28;19987;-80
2023/01/02 13:45:44;;;;;;;;;;;12.00;93.30;;;;;;5001059;28;20473;-79
2023/01/02 13:48:19;;;;;;;;;;;12.00;93.30;;;;;;5000244;28;20004;-80
2023/01/02 13:50:46;;;;;;;;;;;12.00;93.40;;;;;;5000696;28;19932;-80
2023/01/02 13:53:24;;;;;;;;;;;12.00;93.50;;;;;;5001218;28;20661;-79
2023/01/02 13:56:01;;;;;;;;;;;12.00;93.50;;;;;;4998035;28;20389;-78
2023/01/02 13:58:42;;;;;;;;;;;12.00;93.70;;;;;;5005145;28;19937;-79
2023/01/02 14:01:27;;;;;;;;;;;12.00;93.90;;;;;;5005974;28;20026;-80
2023/01/02 14:04:11;;;;;;;;;;;12.00;94.10;;;;;;5002230;28;20751;-79
2023/01/02 14:06:39;;;;;;;;;;;12.00;94.20;;;;;;5003956;28;19980;-79
2023/01/02 14:09:10;;;;;;;;;;;12.00;94.30;;;;;;4997635;28;19929;-78
2023/01/02 14:11:40;;;;;;;;;;;12.00;94.50;;;;;;4994653;28;20444;-79
2023/01/02 14:14:09;;;;;;;;;;;12.00;94.60;;;;;;5006209;28;19991;-79
2023/01/02 14:16:51;;;;;;;;;;;12.00;94.80;;;;;;4992435;28;19945;-78
2023/01/02 14:19:22;;;;;;;;;;;12.00;95.00;;;;;;4998929;28;19933;-79
2023/01/02 14:21:50;;;;;;;;;;;12.00;95.10;;;;;;5002692;28;20086;-80
2023/01/02 14:24:27;;;;;;;;;;;12.00;95.20;;;;;;4996338;28;19929;-79
2023/01/02 14:26:56;;;;;;;;;;;12.00;95.40;;;;;;5001835;28;20669;-78
2023/01/02 14:29:23;;;;;;;;;;;11.90;95.40;;;;;;5003600;28;19952;-78
2023/01/02 14:31:57;;;;;;;;;;;12.00;95.50;;;;;;5002432;28;19929;-79
2023/01/02 14:34:24;;;;;;;;;;;12.00;95.60;;;;;;5003375;28;20372;-79
2023/01/02 14:36:52;;;;;;;;;;;12.00;95.60;;;;;;5005353;28;19938;-79